CPX306 Details

Departure: Chicago/Rockford International Airport (KRFD)
Arrival: Seattle-Tacoma International Airport (KSEA) at N/A
Route: RFD COTON J30 ODI KP90G KP09A DIK KU15Q GEG GLASR1
Notes:


Current Weather Information
KRFD 231354Z 19005KT 10SM FEW150 SCT250 04/01 A2995 RMK AO2 SLP145 T00440011
KSEA 231403Z 03006KT 1/2SM R16L/3500VP6000FT FG OVC001 08/06 A3049 RMK AO2 TWR VIS 10 T00830061 $